Time;durP1;ratioP1;P1;durP2;ratioP2;P2;SDS_P1;SDS_P2;PMS_P1;PMS_P2;Temp;Humidity;BMP_temperature;BMP_pressure;BME280_temperature;BME280_humidity;BME280_pressure;Samples;Min_cycle;Max_cycle;Signal;HPM_P1;HPM_P2
2022/08/31 00:04:31;;;;;;;6.00;4.30;;;;;;;13.71;82.77;97012.56;107933;1268;22537;-77
2022/08/31 00:07:02;;;;;;;5.80;4.20;;;;;;;13.52;83.26;97008.83;107749;1269;22556;-77
2022/08/31 00:09:33;;;;;;;5.80;4.20;;;;;;;13.40;83.89;97010.22;107925;1268;22534;-77
2022/08/31 00:12:08;;;;;;;5.50;4.90;;;;;;;13.36;84.56;97009.18;107946;1270;22587;-77
2022/08/31 00:14:39;;;;;;;6.50;4.70;;;;;;;13.40;85.30;97002.65;107928;1269;25275;-77
2022/08/31 00:17:11;;;;;;;6.10;4.80;;;;;;;13.48;85.70;97003.45;107874;1268;26638;-77
2022/08/31 00:19:43;;;;;;;5.30;4.20;;;;;;;13.52;85.57;97007.17;107885;1268;22712;-76
2022/08/31 00:22:14;;;;;;;4.80;4.20;;;;;;;13.55;85.22;97009.42;107930;1270;24410;-76
2022/08/31 00:24:45;;;;;;;6.80;4.90;;;;;;;13.57;85.11;97009.29;107904;1269;22574;-77
2022/08/31 00:27:17;;;;;;;5.70;4.80;;;;;;;13.48;84.66;97005.52;107882;1270;30301;-77
2022/08/31 00:29:49;;;;;;;6.30;4.50;;;;;;;13.48;84.78;97009.14;107952;1270;22594;-76
2022/08/31 00:32:20;;;;;;;6.70;5.00;;;;;;;13.53;84.77;97009.08;107904;1268;22666;-77
2022/08/31 00:34:52;;;;;;;5.60;4.70;;;;;;;13.58;84.63;97007.68;107900;1270;22534;-77
2022/08/31 00:37:26;;;;;;;5.70;4.50;;;;;;;13.60;84.41;97010.95;107871;1268;24406;-77
2022/08/31 00:39:57;;;;;;;5.50;4.40;;;;;;;13.63;84.08;97008.29;107886;1270;25292;-77
2022/08/31 00:42:28;;;;;;;6.50;5.10;;;;;;;13.66;83.89;97008.17;107730;1271;22614;-77
2022/08/31 00:44:59;;;;;;;5.60;4.50;;;;;;;13.62;83.66;97006.55;107912;1269;25373;-77
2022/08/31 00:47:31;;;;;;;7.30;5.00;;;;;;;13.42;83.81;97006.67;107706;1271;29056;-77
2022/08/31 00:50:04;;;;;;;6.50;4.70;;;;;;;13.33;84.31;97009.17;107982;1268;22593;-77
2022/08/31 00:52:39;;;;;;;5.20;4.30;;;;;;;13.34;84.31;97013.36;107983;1268;25416;-77
2022/08/31 00:55:14;;;;;;;5.90;4.60;;;;;;;13.39;84.50;97017.41;107967;1268;22540;-77
2022/08/31 00:57:49;;;;;;;5.80;4.80;;;;;;;13.37;84.46;97019.89;107873;1268;30320;-77
2022/08/31 01:00:23;;;;;;;9.40;4.70;;;;;;;13.32;84.73;97021.64;107922;1270;22544;-77
2022/08/31 01:02:55;;;;;;;5.40;4.60;;;;;;;13.39;84.86;97019.27;106948;1269;1317966;-77
2022/08/31 01:05:27;;;;;;;5.00;4.40;;;;;;;13.45;84.62;97017.91;107956;1270;22509;-77
2022/08/31 01:08:00;;;;;;;6.50;4.60;;;;;;;13.46;84.37;97018.21;107879;1270;28831;-77
2022/08/31 01:10:34;;;;;;;5.10;4.60;;;;;;;13.49;84.44;97017.70;107741;1271;22765;-77
2022/08/31 01:13:07;;;;;;;5.80;5.20;;;;;;;13.49;84.74;97017.38;107909;1269;22547;-77
2022/08/31 01:15:40;;;;;;;6.10;4.80;;;;;;;13.35;84.83;97015.11;107901;1269;22535;-77
2022/08/31 01:18:15;;;;;;;7.50;4.70;;;;;;;13.21;85.04;97014.64;107888;1269;25660;-77
2022/08/31 01:20:54;;;;;;;4.90;4.20;;;;;;;13.21;84.92;97012.09;107931;1268;22622;-76
2022/08/31 01:23:29;;;;;;;5.30;4.40;;;;;;;13.19;84.99;97015.63;107902;1270;25213;-77
2022/08/31 01:26:03;;;;;;;5.30;4.50;;;;;;;13.08;85.09;97013.81;107930;1271;22576;-77
2022/08/31 01:28:34;;;;;;;6.10;5.30;;;;;;;12.90;85.66;97012.98;107921;1269;37024;-77
2022/08/31 01:31:09;;;;;;;6.90;5.30;;;;;;;12.83;86.65;97016.86;107926;1269;22523;-77
2022/08/31 01:33:41;;;;;;;7.30;5.10;;;;;;;12.76;86.82;97022.93;107925;1268;22581;-77
2022/08/31 01:36:13;;;;;;;6.80;5.40;;;;;;;12.73;87.16;97023.82;107928;1268;24154;-76
2022/08/31 01:38:45;;;;;;;6.40;5.40;;;;;;;12.78;87.57;97021.80;107883;1270;24969;-77
2022/08/31 01:41:16;;;;;;;6.20;5.30;;;;;;;12.86;87.96;97022.36;107911;1268;22598;-77
2022/08/31 01:43:47;;;;;;;6.70;4.90;;;;;;;12.92;88.36;97026.54;107910;1270;25429;-76
2022/08/31 01:46:19;;;;;;;7.50;5.00;;;;;;;13.00;88.28;97025.40;107951;1268;22610;-77
2022/08/31 01:48:51;;;;;;;6.50;4.70;;;;;;;13.07;88.26;97019.72;107833;1268;25820;-77
2022/08/31 01:51:23;;;;;;;6.10;4.70;;;;;;;13.12;87.95;97023.78;107888;1269;22645;-76
2022/08/31 01:53:55;;;;;;;7.00;4.80;;;;;;;13.15;87.47;97020.18;107869;1270;25296;-77
2022/08/31 01:56:30;;;;;;;4.60;4.20;;;;;;;13.20;87.14;97024.08;107871;1269;25523;-77
2022/08/31 01:59:02;;;;;;;6.70;5.00;;;;;;;13.17;87.25;97022.60;107776;1269;30711;-77
2022/08/31 02:01:37;;;;;;;5.40;4.60;;;;;;;13.18;87.50;97024.52;107883;1269;22543;-77
2022/08/31 02:04:10;;;;;;;6.80;5.00;;;;;;;13.17;87.31;97027.60;107896;1270;25527;-76
2022/08/31 02:06:44;;;;;;;6.30;5.10;;;;;;;13.02;86.71;97029.63;107875;1270;25245;-77
2022/08/31 02:09:16;;;;;;;6.00;4.80;;;;;;;12.85;87.07;97033.28;107859;1270;38522;-77
2022/08/31 02:11:47;;;;;;;5.80;5.10;;;;;;;12.74;87.63;97035.46;107893;1270;22546;-77
2022/08/31 02:14:28;;;;;;;5.70;4.70;;;;;;;12.71;87.99;97033.58;107888;1270;22531;-77
2022/08/31 02:16:59;;;;;;;7.50;4.90;;;;;;;12.67;88.01;97032.88;107863;1270;23531;-77
2022/08/31 02:19:31;;;;;;;5.40;4.20;;;;;;;12.72;87.69;97034.74;107904;1270;22540;-77
2022/08/31 02:22:03;;;;;;;5.20;4.20;;;;;;;12.78;87.77;97031.04;107882;1270;22523;-77
2022/08/31 02:24:34;;;;;;;5.70;4.80;;;;;;;12.72;87.86;97029.63;107899;1270;24159;-76
2022/08/31 02:27:06;;;;;;;5.40;4.40;;;;;;;12.59;88.29;97028.16;107848;1270;48511;-77
2022/08/31 02:29:37;;;;;;;7.20;4.80;;;;;;;12.50;88.83;97024.98;107849;1271;25378;-76
2022/08/31 02:32:10;;;;;;;5.90;5.00;;;;;;;12.53;89.35;97018.59;107871;1269;22548;-77
2022/08/31 02:34:41;;;;;;;4.90;4.40;;;;;;;12.59;89.42;97017.63;107890;1270;24050;-76
2022/08/31 02:37:13;;;;;;;5.00;4.50;;;;;;;12.59;89.06;97016.40;107820;1269;27746;-77
2022/08/31 02:39:45;;;;;;;5.60;4.40;;;;;;;12.47;89.21;97016.66;107798;1269;22542;-76
2022/08/31 02:42:16;;;;;;;5.50;4.50;;;;;;;12.43;89.89;97012.24;107867;1270;22531;-77
2022/08/31 02:44:50;;;;;;;5.50;5.00;;;;;;;12.49;90.84;97011.70;107913;1269;23226;-77
2022/08/31 02:47:22;;;;;;;6.50;5.30;;;;;;;12.58;91.14;97009.34;107866;1270;34516;-77
2022/08/31 02:49:53;;;;;;;6.00;4.70;;;;;;;12.65;91.03;97011.14;107912;1270;22626;-77
2022/08/31 02:52:24;;;;;;;4.90;4.10;;;;;;;12.68;90.41;97007.45;107894;1270;22611;-77
2022/08/31 02:54:56;;;;;;;4.50;3.90;;;;;;;12.72;89.91;97005.90;107871;1270;24276;-77
2022/08/31 02:57:27;;;;;;;4.90;4.00;;;;;;;12.76;89.41;97005.75;107857;1270;27912;-76
2022/08/31 02:59:58;;;;;;;3.90;3.40;;;;;;;12.75;89.39;97005.17;107930;1270;23693;-77
2022/08/31 03:02:30;;;;;;;5.20;4.10;;;;;;;12.67;89.15;97008.20;107963;1270;25247;-77
2022/08/31 03:05:06;;;;;;;6.30;4.40;;;;;;;12.49;89.08;97004.26;107901;1270;23661;-77
2022/08/31 03:07:41;;;;;;;5.20;4.10;;;;;;;12.40;89.55;97006.73;107861;1271;28622;-77
2022/08/31 03:10:14;;;;;;;6.50;3.60;;;;;;;12.44;89.89;97007.92;107911;1271;25224;-77
2022/08/31 03:12:45;;;;;;;5.70;3.40;;;;;;;12.51;89.86;97007.42;107933;1271;22556;-77
2022/08/31 03:15:17;;;;;;;4.00;3.30;;;;;;;12.57;89.63;97005.42;107896;1271;22625;-77
2022/08/31 03:17:49;;;;;;;5.20;3.60;;;;;;;12.58;89.46;97007.33;107886;1268;26794;-76
2022/08/31 03:20:22;;;;;;;5.70;4.10;;;;;;;12.46;89.62;97006.94;108006;1268;22544;-77
2022/08/31 03:22:53;;;;;;;5.70;3.90;;;;;;;12.39;89.77;97009.35;108010;1268;22613;-77
2022/08/31 03:25:25;;;;;;;4.80;3.50;;;;;;;12.42;89.86;97011.89;107944;1271;22626;-77
2022/08/31 03:27:56;;;;;;;7.10;4.00;;;;;;;12.47;89.69;97011.19;107939;1268;25879;-77
2022/08/31 03:30:30;;;;;;;5.40;3.60;;;;;;;12.43;89.60;97014.00;107953;1268;22533;-76
2022/08/31 03:33:02;;;;;;;4.50;3.40;;;;;;;12.32;89.89;97016.38;107928;1269;23320;-77
2022/08/31 03:35:33;;;;;;;5.50;4.20;;;;;;;12.25;90.39;97020.81;107897;1268;22981;-76
2022/08/31 03:38:04;;;;;;;6.60;3.90;;;;;;;12.25;91.04;97015.32;107819;1268;26448;-77
2022/08/31 03:40:35;;;;;;;5.60;3.50;;;;;;;12.26;91.38;97012.23;107836;1271;22541;-77
2022/08/31 03:43:10;;;;;;;4.60;3.80;;;;;;;12.31;91.33;97019.63;107823;1269;24238;-77
2022/08/31 03:45:42;;;;;;;5.30;3.80;;;;;;;12.35;91.15;97019.90;107830;1271;22642;-77
2022/08/31 03:48:14;;;;;;;5.70;4.30;;;;;;;12.44;91.02;97020.16;107815;1268;30065;-77
2022/08/31 03:50:46;;;;;;;6.20;4.90;;;;;;;12.49;90.72;97023.66;107879;1268;22591;-77
2022/08/31 03:53:18;;;;;;;5.90;4.20;;;;;;;12.55;90.52;97025.12;107892;1268;24228;-77
2022/08/31 03:55:49;;;;;;;6.70;4.20;;;;;;;12.60;90.33;97018.52;107852;1268;22599;-77
2022/08/31 03:58:20;;;;;;;5.30;4.40;;;;;;;12.65;90.15;97015.71;107793;1268;26495;-77
2022/08/31 04:00:53;;;;;;;5.50;3.80;;;;;;;12.69;89.92;97017.27;107819;1271;22520;-76
2022/08/31 04:03:24;;;;;;;6.70;4.10;;;;;;;12.69;89.74;97024.61;107843;1271;22521;-77
2022/08/31 04:05:55;;;;;;;5.90;4.70;;;;;;;12.76;89.96;97022.98;107821;1271;22540;-77
2022/08/31 04:08:27;;;;;;;5.30;4.40;;;;;;;12.83;89.66;97020.21;107760;1272;27855;-77
2022/08/31 04:10:59;;;;;;;7.80;4.10;;;;;;;12.87;89.37;97021.55;107850;1271;22547;-77
2022/08/31 04:13:30;;;;;;;5.40;4.40;;;;;;;12.78;89.02;97022.98;107825;1268;22616;-76
2022/08/31 04:16:02;;;;;;;4.70;4.10;;;;;;;12.72;89.39;97027.18;107884;1268;24259;-76
2022/08/31 04:18:34;;;;;;;4.80;3.90;;;;;;;12.87;90.02;97023.85;107808;1268;26839;-77
2022/08/31 04:21:10;;;;;;;4.10;3.70;;;;;;;13.04;90.05;97028.06;107871;1271;22550;-77
2022/08/31 04:23:42;;;;;;;4.60;3.90;;;;;;;13.09;89.56;97025.89;107834;1271;25385;-76
2022/08/31 04:26:20;;;;;;;5.20;4.10;;;;;;;13.09;89.71;97027.33;107867;1271;22576;-77
2022/08/31 04:28:52;;;;;;;6.00;4.00;;;;;;;13.30;90.28;97026.94;107795;1271;29333;-76
2022/08/31 04:31:25;;;;;;;5.10;3.70;;;;;;;13.76;90.66;97032.53;107849;1271;22537;-76
2022/08/31 04:33:57;;;;;;;6.10;4.50;;;;;;;14.13;89.98;97034.16;107849;1271;22561;-77
2022/08/31 04:36:29;;;;;;;5.40;3.70;;;;;;;14.16;89.29;97036.95;107886;1271;22633;-76
2022/08/31 04:39:03;;;;;;;4.70;3.70;;;;;;;14.11;88.84;97034.20;107752;1271;40477;-77
2022/08/31 04:41:37;;;;;;;5.30;3.60;;;;;;;14.04;88.88;97032.16;107859;1271;22540;-77
2022/08/31 04:44:10;;;;;;;4.60;3.40;;;;;;;13.93;88.87;97037.19;107821;1271;22527;-77
2022/08/31 04:46:41;;;;;;;4.10;3.70;;;;;;;13.82;89.21;97035.48;107872;1271;25311;-77
2022/08/31 04:49:14;;;;;;;5.80;4.30;;;;;;;13.77;89.57;97038.75;107920;1270;26176;-77
2022/08/31 04:51:45;;;;;;;5.20;4.30;;;;;;;13.75;89.80;97038.20;107957;1271;22611;-77
2022/08/31 04:54:16;;;;;;;4.90;4.00;;;;;;;13.79;90.21;97035.84;107843;1271;23096;-77
2022/08/31 04:56:48;;;;;;;6.50;4.50;;;;;;;13.96;90.56;97036.88;107874;1271;22640;-77
2022/08/31 04:59:24;;;;;;;4.80;3.70;;;;;;;14.16;90.68;97037.76;107803;1271;27476;-77
2022/08/31 05:01:57;;;;;;;5.30;3.90;;;;;;;14.34;90.59;97032.29;107868;1270;22550;-77
2022/08/31 05:04:28;;;;;;;5.40;4.40;;;;;;;14.50;90.32;97031.10;107851;1271;22535;-76
2022/08/31 05:07:00;;;;;;;6.00;4.10;;;;;;;14.57;89.78;97036.15;107869;1271;22653;-77
2022/08/31 05:09:34;;;;;;;5.50;4.50;;;;;;;14.60;89.37;97043.48;107851;1271;22532;-76
2022/08/31 05:12:06;;;;;;;5.10;4.30;;;;;;;14.73;89.42;97039.67;107888;1269;22606;-77
2022/08/31 05:14:38;;;;;;;4.50;4.00;;;;;;;14.86;89.16;97043.70;107857;1269;22538;-77
2022/08/31 05:17:09;;;;;;;5.50;4.50;;;;;;;14.99;88.84;97043.48;107756;1270;36633;-77
2022/08/31 05:19:41;;;;;;;6.10;4.70;;;;;;;15.18;88.73;97042.22;107849;1269;25261;-77
2022/08/31 05:22:12;;;;;;;5.80;4.40;;;;;;;15.30;88.29;97042.41;107843;1270;22562;-77
2022/08/31 05:24:44;;;;;;;5.70;5.00;;;;;;;15.42;87.84;97044.67;107825;1271;22537;-77
2022/08/31 05:27:15;;;;;;;5.50;4.80;;;;;;;15.58;87.78;97043.56;107804;1270;27634;-77
2022/08/31 05:29:47;;;;;;;7.40;4.50;;;;;;;15.58;86.92;97043.40;107964;1268;26238;-77
2022/08/31 05:32:18;;;;;;;6.20;5.10;;;;;;;15.49;86.79;97041.92;107930;1271;24267;-77
2022/08/31 05:34:50;;;;;;;6.60;4.90;;;;;;;15.55;87.18;97048.05;107990;1268;22541;-77
2022/08/31 05:37:22;;;;;;;7.50;5.40;;;;;;;15.70;87.22;97053.70;107894;1271;28059;-77
2022/08/31 05:39:57;;;;;;;6.50;5.80;;;;;;;15.82;86.90;97058.26;107972;1268;25248;-77
2022/08/31 05:42:30;;;;;;;8.90;6.50;;;;;;;15.90;86.66;97060.09;108000;1268;22531;-78
2022/08/31 05:45:01;;;;;;;8.00;5.60;;;;;;;15.89;86.32;97060.82;107961;1268;25253;-78
2022/08/31 05:47:33;;;;;;;7.40;5.90;;;;;;;15.90;86.25;97060.80;107916;1268;29018;-77
2022/08/31 05:50:10;;;;;;;7.00;6.30;;;;;;;15.90;86.43;97059.52;107907;1269;24415;-77
2022/08/31 05:52:42;;;;;;;6.30;5.60;;;;;;;15.95;86.23;97057.90;107982;1268;22538;-77
2022/08/31 05:55:14;;;;;;;6.70;5.60;;;;;;;16.07;86.15;97056.73;107913;1268;22543;-77
2022/08/31 05:57:45;;;;;;;7.50;5.50;;;;;;;16.20;85.83;97062.06;107812;1268;37403;-78
2022/08/31 06:00:17;;;;;;;7.80;6.10;;;;;;;16.41;85.93;97063.58;107942;1268;24232;-77
2022/08/31 06:02:51;;;;;;;7.20;5.50;;;;;;;16.57;85.34;97069.72;107918;1268;22586;-77
2022/08/31 06:05:23;;;;;;;8.10;5.80;;;;;;;16.60;85.08;97065.80;107912;1268;22516;-78
2022/08/31 06:07:54;;;;;;;9.00;5.40;;;;;;;16.58;84.81;97069.77;107805;1268;38335;-77
2022/08/31 06:10:26;;;;;;;8.00;5.90;;;;;;;16.71;85.14;97075.45;107911;1268;22520;-76
2022/08/31 06:12:58;;;;;;;6.00;5.40;;;;;;;16.92;85.21;97074.83;107904;1268;24617;-76
2022/08/31 06:15:29;;;;;;;6.30;5.50;;;;;;;17.09;84.28;97079.27;107928;1268;22695;-76
2022/08/31 06:18:00;;;;;;;8.80;6.00;;;;;;;17.20;84.01;97082.08;107861;1268;23021;-76
2022/08/31 06:20:36;;;;;;;7.30;5.80;;;;;;;17.43;84.00;97083.33;107923;1268;23480;-76
2022/08/31 06:23:11;;;;;;;8.30;5.70;;;;;;;17.72;83.70;97082.89;107934;1268;22594;-75
2022/08/31 06:25:42;;;;;;;5.20;4.70;;;;;;;18.06;83.18;97089.95;107977;1268;22563;-77
2022/08/31 06:28:14;;;;;;;7.00;4.80;;;;;;;18.27;82.34;97090.45;107992;1268;35918;-77
2022/08/31 06:30:46;;;;;;;6.20;4.40;;;;;;;18.41;81.65;97090.67;108007;1268;24241;-77
2022/08/31 06:33:18;;;;;;;8.10;4.80;;;;;;;18.75;80.99;97094.02;107991;1268;25593;-76
2022/08/31 06:35:49;;;;;;;5.10;4.30;;;;;;;19.06;80.34;97089.73;108027;1268;25660;-77
2022/08/31 06:38:20;;;;;;;5.20;4.60;;;;;;;19.28;78.76;97091.56;107913;1269;24291;-76
2022/08/31 06:40:52;;;;;;;3.30;3.00;;;;;;;20.15;80.08;97088.52;107964;1268;22522;-77
2022/08/31 06:43:23;;;;;;;3.90;3.10;;;;;;;22.34;78.50;97086.96;107890;1268;22534;-77
2022/08/31 06:45:58;;;;;;;3.40;2.80;;;;;;;22.50;70.07;97085.52;107902;1268;22554;-77
2022/08/31 06:48:30;;;;;;;3.40;2.90;;;;;;;22.19;69.78;97082.94;107811;1268;33081;-77
2022/08/31 06:51:01;;;;;;;3.60;2.40;;;;;;;22.93;67.01;97090.65;107883;1268;24235;-77
2022/08/31 06:53:36;;;;;;;3.70;2.40;;;;;;;23.73;67.51;97096.20;107893;1268;22993;-77
2022/08/31 06:56:11;;;;;;;2.90;2.50;;;;;;;23.81;63.32;97092.98;107950;1268;22685;-77
2022/08/31 06:58:44;;;;;;;4.50;2.30;;;;;;;23.13;62.63;97092.78;107903;1268;23981;-77
2022/08/31 07:01:18;;;;;;;3.40;2.50;;;;;;;23.43;64.59;97099.41;107889;1268;22543;-77
2022/08/31 07:03:50;;;;;;;3.10;2.80;;;;;;;23.94;62.99;97096.52;107914;1268;22545;-77
2022/08/31 07:06:24;;;;;;;3.60;3.20;;;;;;;24.24;62.85;97098.73;107879;1268;22520;-78
2022/08/31 07:09:02;;;;;;;3.30;2.90;;;;;;;24.73;61.69;97097.66;107820;1268;30385;-77
2022/08/31 07:11:36;;;;;;;4.20;3.00;;;;;;;25.09;60.52;97101.47;107917;1269;22577;-77
2022/08/31 07:14:11;;;;;;;5.90;3.00;;;;;;;25.11;59.84;97106.69;107897;1269;22521;-77
2022/08/31 07:16:43;;;;;;;3.20;2.90;;;;;;;24.67;59.35;97109.55;107899;1268;22540;-77
2022/08/31 07:19:16;;;;;;;4.90;3.00;;;;;;;23.86;57.70;97107.00;107864;1268;22881;-77
2022/08/31 07:21:49;;;;;;;3.50;3.00;;;;;;;22.59;58.48;97110.71;107886;1268;24183;-77
2022/08/31 07:24:24;;;;;;;4.60;3.20;;;;;;;21.96;60.08;97107.69;107935;1268;23093;-77
2022/08/31 07:26:57;;;;;;;3.90;2.90;;;;;;;21.47;61.66;97106.61;107781;1269;22605;-77
2022/08/31 07:29:31;;;;;;;5.30;4.00;;;;;;;21.02;61.50;97110.94;107771;1268;23172;-77
2022/08/31 07:32:03;;;;;;;3.90;3.30;;;;;;;20.44;62.77;97110.66;107779;1268;22527;-77
2022/08/31 07:34:35;;;;;;;4.20;3.80;;;;;;;20.18;64.00;97118.45;107784;1268;22567;-77
2022/08/31 07:42:46;;;;;;;5.50;4.70;;;;;;;19.60;66.61;97122.84;107798;1268;22584;-77
2022/08/31 07:45:22;;;;;;;6.80;4.80;;;;;;;19.44;67.03;97123.48;107823;1268;23311;-77
2022/08/31 07:47:55;;;;;;;5.80;4.30;;;;;;;19.26;67.56;97123.27;107550;1268;29380;-77
2022/08/31 07:50:29;;;;;;;6.10;4.70;;;;;;;19.12;68.06;97123.61;107783;1268;23483;-77
2022/08/31 07:53:01;;;;;;;5.00;4.50;;;;;;;18.96;68.23;97123.25;107825;1267;22529;-77
2022/08/31 07:55:36;;;;;;;6.70;4.30;;;;;;;18.77;68.97;97126.81;107811;1268;22534;-77
2022/08/31 07:58:14;;;;;;;5.30;4.00;;;;;;;18.70;69.57;97128.71;107697;1269;32975;-77
2022/08/31 08:00:46;;;;;;;5.60;4.30;;;;;;;18.58;69.76;97131.80;107682;1268;22543;-74
2022/08/31 08:03:18;;;;;;;6.20;4.10;;;;;;;18.41;70.27;97130.23;107794;1268;24322;-75
2022/08/31 08:05:50;;;;;;;7.10;4.50;;;;;;;18.28;70.50;97128.98;107856;1267;22531;-76
2022/08/31 08:08:24;;;;;;;5.90;4.80;;;;;;;17.93;70.73;97128.61;107760;1268;29660;-76
2022/08/31 08:10:55;;;;;;;5.70;4.60;;;;;;;17.69;71.36;97126.11;107809;1268;22585;-76
2022/08/31 08:13:27;;;;;;;7.10;5.00;;;;;;;17.59;71.89;97128.26;107811;1268;23283;-76
2022/08/31 08:15:58;;;;;;;5.50;4.80;;;;;;;17.55;72.43;97129.85;107834;1268;24159;-76
2022/08/31 08:18:29;;;;;;;5.10;4.30;;;;;;;17.58;72.59;97132.44;107749;1268;28113;-75
2022/08/31 08:21:01;;;;;;;6.00;4.40;;;;;;;17.60;72.69;97136.98;107842;1268;25443;-75
2022/08/31 08:23:32;;;;;;;5.30;4.60;;;;;;;17.76;73.14;97135.31;107819;1268;23683;-75
2022/08/31 08:26:10;;;;;;;5.60;4.20;;;;;;;18.01;73.04;97134.88;107851;1268;22585;-76
2022/08/31 08:28:43;;;;;;;6.20;4.80;;;;;;;18.22;72.53;97137.25;107727;1268;28005;-75
2022/08/31 08:31:16;;;;;;;6.10;5.10;;;;;;;18.20;72.07;97133.67;107782;1268;24309;-76
2022/08/31 08:33:50;;;;;;;4.80;4.10;;;;;;;18.02;72.13;97134.15;107681;1268;25266;-76
2022/08/31 08:36:21;;;;;;;5.20;4.20;;;;;;;18.00;72.46;97133.66;107842;1268;22998;-75
2022/08/31 08:38:56;;;;;;;5.70;4.40;;;;;;;18.01;72.47;97131.80;107738;1268;30687;-75
2022/08/31 08:41:31;;;;;;;4.10;3.70;;;;;;;18.16;72.71;97130.20;107669;1269;22542;-76
2022/08/31 08:44:05;;;;;;;3.50;3.20;;;;;;;18.27;72.21;97127.61;107764;1270;22527;-76
2022/08/31 08:46:40;;;;;;;4.00;3.20;;;;;;;18.30;71.92;97131.64;107782;1269;26536;-75
2022/08/31 08:49:19;;;;;;;3.50;3.00;;;;;;;18.31;72.17;97132.05;107721;1267;24507;-76
2022/08/31 08:51:54;;;;;;;2.70;2.50;;;;;;;18.43;72.37;97130.27;107792;1269;22702;-76
2022/08/31 08:54:33;;;;;;;3.70;2.40;;;;;;;18.62;72.37;97127.06;107737;1270;24516;-76
2022/08/31 08:57:13;;;;;;;2.30;1.80;;;;;;;18.67;71.44;97127.20;107694;1269;31851;-76
2022/08/31 08:59:46;;;;;;;5.10;1.90;;;;;;;18.57;70.57;97121.59;107857;1268;22649;-76
2022/08/31 09:02:23;;;;;;;1.60;1.20;;;;;;;18.49;70.15;97122.10;107877;1268;25246;-75
2022/08/31 09:05:33;;;;;;;2.80;1.30;;;;;;;18.42;69.57;97123.17;107806;1268;22541;-75
2022/08/31 09:08:22;;;;;;;1.60;0.90;;;;;;;18.35;68.97;97118.88;107767;1268;26736;-75
2022/08/31 09:11:07;;;;;;;1.80;0.90;;;;;;;18.44;69.18;97123.70;107812;1268;22527;-75
2022/08/31 09:13:49;;;;;;;2.40;1.20;;;;;;;18.56;68.46;97118.95;107852;1269;22525;-76
2022/08/31 09:16:28;;;;;;;1.80;1.40;;;;;;;18.64;67.83;97117.95;107924;1268;22764;-76
2022/08/31 09:19:05;;;;;;;1.50;1.10;;;;;;;18.63;68.05;97117.05;107730;1270;31247;-76
2022/08/31 09:21:39;;;;;;;2.70;1.40;;;;;;;18.79;68.77;97117.55;107843;1268;22534;-76
2022/08/31 09:24:14;;;;;;;3.30;1.80;;;;;;;19.02;69.09;97111.50;107801;1268;22557;-76
2022/08/31 09:27:16;;;;;;;1.20;1.00;;;;;;;19.14;68.91;97113.49;107906;1268;24529;-77
2022/08/31 09:29:56;;;;;;;1.70;1.20;;;;;;;18.94;67.16;97108.79;107992;1268;24197;-77
2022/08/31 09:32:31;;;;;;;2.10;1.40;;;;;;;18.69;67.83;97108.33;107962;1268;22636;-77
2022/08/31 09:35:08;;;;;;;2.00;1.80;;;;;;;18.63;68.02;97105.94;107889;1269;22525;-77
2022/08/31 09:37:45;;;;;;;2.30;1.40;;;;;;;18.63;68.78;97105.55;107886;1268;29102;-77
2022/08/31 09:40:19;;;;;;;2.10;1.80;;;;;;;18.64;68.35;97104.66;107944;1268;22543;-77
2022/08/31 09:43:05;;;;;;;2.30;1.80;;;;;;;18.66;69.47;97104.47;107915;1268;22574;-77
2022/08/31 09:45:37;;;;;;;2.90;2.00;;;;;;;18.99;69.87;97101.67;107811;1268;22563;-77
2022/08/31 09:48:10;;;;;;;3.80;2.80;;;;;;;19.36;69.57;97101.12;107809;1268;28500;-77
2022/08/31 09:50:45;;;;;;;3.10;2.10;;;;;;;19.35;67.85;97100.95;107772;1269;23018;-77
2022/08/31 09:56:18;;;;;;;3.30;2.20;;;;;;;18.72;68.36;97099.96;107773;1269;23983;-77
2022/08/31 09:58:53;;;;;;;3.90;2.50;;;;;;;18.79;69.26;97094.13;107775;1268;33985;-77
2022/08/31 10:01:30;;;;;;;3.10;2.20;;;;;;;18.91;68.90;97093.20;107796;1268;25426;-77
2022/08/31 10:04:19;;;;;;;2.80;2.30;;;;;;;18.78;69.19;97094.98;107834;1268;24266;-77
2022/08/31 10:06:57;;;;;;;3.10;2.20;;;;;;;18.65;69.84;97087.60;107796;1268;22565;-77
2022/08/31 10:09:35;;;;;;;2.30;2.00;;;;;;;18.69;70.19;97086.78;107854;1268;22522;-77
2022/08/31 10:12:11;;;;;;;3.20;2.20;;;;;;;18.66;70.32;97087.11;107853;1267;22632;-77
2022/08/31 10:14:54;;;;;;;2.90;2.60;;;;;;;18.63;70.39;97092.35;107822;1268;25271;-77
2022/08/31 10:17:38;;;;;;;3.20;2.50;;;;;;;18.48;70.45;97085.33;107743;1268;36103;-77
2022/08/31 10:20:18;;;;;;;2.70;2.40;;;;;;;18.39;70.62;97083.41;107823;1269;22711;-77
2022/08/31 10:22:54;;;;;;;3.70;2.40;;;;;;;18.59;71.44;97087.41;107824;1269;22576;-77
2022/08/31 10:25:31;;;;;;;4.40;2.50;;;;;;;18.62;70.64;97091.86;107791;1269;22538;-77
2022/08/31 10:28:10;;;;;;;4.60;2.60;;;;;;;18.61;71.14;97091.91;107672;1268;27865;-77
2022/08/31 10:30:53;;;;;;;3.30;2.70;;;;;;;18.72;71.22;97094.69;107921;1268;24234;-78
2022/08/31 10:35:01;;;;;;;4.10;3.00;;;;;;;18.65;70.81;97093.08;107835;1267;22524;-77
2022/08/31 10:36:25;;;;;;;4.50;3.10;;;;;;;18.67;70.89;97091.21;107856;1267;22977;-79
2022/08/31 10:38:57;;;;;;;4.60;3.40;;;;;;;18.67;70.62;97091.30;107749;1267;32093;-80
2022/08/31 10:41:33;;;;;;;4.30;3.60;;;;;;;18.51;70.33;97089.05;107814;1268;22976;-80
2022/08/31 10:44:16;;;;;;;4.60;3.40;;;;;;;18.38;70.94;97090.35;107823;1268;22542;-80
2022/08/31 10:46:57;;;;;;;5.90;4.40;;;;;;;18.27;71.27;97090.29;107863;1268;22559;-80
2022/08/31 10:49:31;;;;;;;6.00;4.10;;;;;;;18.11;71.46;97089.05;107903;1268;22558;-80
2022/08/31 10:52:10;;;;;;;6.20;4.30;;;;;;;17.97;71.86;97090.98;107845;1268;22555;-79
2022/08/31 10:54:54;;;;;;;5.50;4.30;;;;;;;17.83;72.25;97091.42;108027;1268;23177;-80
2022/08/31 10:57:37;;;;;;;6.00;4.60;;;;;;;17.68;72.93;97098.34;107862;1268;30411;-79
2022/08/31 11:00:40;;;;;;;;;;;;;;;17.72;73.54;97094.13;107929;1267;22563;-80
2022/08/31 11:03:12;;;;;;;4.90;4.30;;;;;;;17.69;73.52;97091.73;107918;1268;25767;-79
2022/08/31 11:05:51;;;;;;;5.00;4.50;;;;;;;17.65;73.39;97090.50;107943;1268;22522;-79
2022/08/31 11:08:48;;;;;;;6.20;4.20;;;;;;;17.57;73.28;97091.85;107844;1268;30233;-79
2022/08/31 11:11:31;;;;;;;4.50;4.10;;;;;;;17.50;73.54;97092.19;107944;1268;25208;-78
2022/08/31 11:14:36;;;;;;;5.70;4.20;;;;;;;17.56;74.03;97093.36;107920;1268;23516;-79
2022/08/31 11:17:26;;;;;;;6.60;4.00;;;;;;;17.58;73.90;97089.14;107802;1268;29879;-79
2022/08/31 11:20:38;;;;;;;4.20;3.40;;;;;;;17.57;73.95;97086.86;107832;1268;23370;-79
2022/08/31 11:23:28;;;;;;;3.70;3.30;;;;;;;17.66;73.83;97080.70;107852;1268;22643;-79
2022/08/31 11:26:45;;;;;;;4.70;3.60;;;;;;;17.75;73.85;97081.02;107834;1268;22605;-79
2022/08/31 11:29:36;;;;;;;4.80;3.30;;;;;;;17.86;73.54;97080.23;107489;1273;38373;-79
2022/08/31 11:32:17;;;;;;;5.10;3.10;;;;;;;17.96;73.31;97077.08;107802;1268;22511;-78
2022/08/31 11:34:52;;;;;;;4.00;3.30;;;;;;;18.01;73.04;97081.52;107826;1268;23152;-79
2022/08/31 11:37:55;;;;;;;6.10;3.10;;;;;;;18.01;72.74;97081.69;107815;1268;31946;-79
2022/08/31 11:41:09;;;;;;;7.30;3.30;;;;;;;18.02;72.65;97081.34;107780;1268;22527;-79
2022/08/31 11:43:52;;;;;;;5.30;3.00;;;;;;;18.12;72.85;97082.33;107808;1268;22530;-79
2022/08/31 11:47:00;;;;;;;3.70;3.30;;;;;;;18.21;72.73;97076.05;107812;1268;22591;-77
2022/08/31 11:49:55;;;;;;;3.70;3.30;;;;;;;18.22;72.40;97076.21;107899;1268;22528;-77
2022/08/31 11:52:47;;;;;;;6.10;2.60;;;;;;;18.22;72.30;97076.11;107741;1268;22541;-78
2022/08/31 11:55:24;;;;;;;3.60;2.60;;;;;;;18.18;71.76;97072.05;107803;1268;22559;-78
2022/08/31 11:58:18;;;;;;;3.40;2.70;;;;;;;18.09;72.02;97069.26;107745;1268;25406;-78
2022/08/31 12:00:52;;;;;;;3.10;2.50;;;;;;;18.11;72.16;97068.26;107796;1268;23364;-78
2022/08/31 12:03:51;;;;;;;4.90;2.00;;;;;;;18.10;71.87;97064.14;107845;1267;22528;-78
2022/08/31 12:07:09;;;;;;;3.10;2.20;;;;;;;18.02;71.57;97061.38;107819;1268;22582;-78
2022/08/31 12:10:18;;;;;;;3.40;2.10;;;;;;;18.03;71.46;97061.77;107834;1268;25206;-78
2022/08/31 12:13:19;;;;;;;4.00;2.60;;;;;;;18.16;71.91;97061.87;107821;1268;22611;-78
2022/08/31 12:16:08;;;;;;;4.60;2.40;;;;;;;18.30;71.23;97061.21;107844;1268;22541;-79